• Join FlightAware (Why Join?)
  • Login
  • US Flag 
08:58PM EDT


 

Airport Tracker/Info


-or-


 

Live Flight TrackerFlight Track Log ✈ AAL1459 ✈ 15-Apr-2013 ✈ KORD - KRNO

Flight Track Log - Related Links

Times and Time Zones

All times are in EDT time to prevent confusion due to time zone crossing. See the AAL1459 flight status page for this flight to view local times or setup timezone preferences in your user account.

Time Position Orientation Groundspeed Altitude Reporting Facility
EDT Latitude Longitude Course Direction KTS MPH feet Rate Location/Type
06:29PM 41.9980 -87.9490 304° West 155 178 2,100  Level FlightAware
06:30PM 41.9960 -87.9750 264° West 183 211 2,500 960 Climbing FlightAware
06:30PM 41.9930 -88.0100 263° West 223 257 3,000 1,500 Climbing FlightAware
06:31PM 41.9910 -88.0500 266° West 247 284 3,900 2,280 Climbing FlightAware
06:31PM 42.0010 -88.0880 290° West 258 297 5,100 2,520 Climbing FlightAware
06:32PM 42.0170 -88.1070 319° Northwest 270 311 5,800 2,400 Climbing FlightAware
06:32PM 42.0460 -88.1360 323° Northwest 284 327 6,900 2,460 Climbing FlightAware
06:32PM 42.0770 -88.1670 323° Northwest 289 333 8,100 2,580 Climbing FlightAware
06:33PM 42.0880 -88.2130 288° West 268 308 9,300 2,880 Climbing FlightAware
06:34PM 42.0940 -88.2740 278° West 246 283 11,500 2,820 Climbing FlightAware
06:34PM 42.0980 -88.3340 275° West 242 278 13,100 1,440 Climbing FlightAware
06:35PM 42.1020 -88.4020 275° West 235 270 13,600 1,020 Climbing FlightAware
06:36PM 42.1040 -88.4580 273° West 259 298 14,500 1,500 Climbing FlightAware
06:36PM 42.1080 -88.5280 274° West 288 331 15,500 2,040 Climbing FlightAware
06:37PM 42.1100 -88.6110 272° West 291 335 17,400 1,920 Climbing FlightAware
06:38PM 42.1130 -88.6850 273° West 310 357 18,300 1,620 Climbing FlightAware
06:38PM 42.1150 -88.7620 272° West 320 368 19,600 1,800 Climbing FlightAware
06:39PM 42.1190 -88.8530 273° West 339 390 20,900 1,740 Climbing FlightAware
06:40PM 42.1220 -88.9390 273° West 351 404 22,100 1,860 Climbing FlightAware
06:41PM 42.1250 -89.0440 272° West 357 411 23,600 1,800 Climbing FlightAware
06:41PM 42.1270 -89.1220 272° West 361 415 24,700 1,800 Climbing FlightAware
06:42PM 42.1290 -89.2330 271° West 364 419 26,200 1,800 Climbing FlightAware
06:43PM 42.1300 -89.3180 271° West 364 419 27,300 1,560 Climbing FlightAware
06:43PM 42.1320 -89.4100 272° West 368 423 28,300 1,440 Climbing FlightAware
06:44PM 42.1320 -89.5160 270° West 373 429 29,400 1,380 Climbing FlightAware
06:45PM 42.1330 -89.5990 271° West 374 430 30,200 1,320 Climbing FlightAware
06:45PM 42.1330 -89.7130 270° West 376 433 31,300 1,380 Climbing FlightAware
06:46PM 42.1340 -89.8030 271° West 373 429 32,300 1,500 Climbing FlightAware
06:47PM 42.1360 -89.9000 272° West 368 423 33,300 1,380 Climbing FlightAware
06:48PM 42.1370 -90.0030 271° West 363 418 34,300 1,320 Climbing FlightAware
06:48PM 42.1380 -90.0790 271° West 359 413 35,100 1,260 Climbing FlightAware
06:49PM 42.1400 -90.1850 271° West 352 405 36,100 600 Climbing FlightAware
06:50PM 42.1440 -90.2750 273° West 355 409 36,000 -120 Descending FlightAware
06:50PM 42.1480 -90.3650 273° West 355 409 36,000  Level FlightAware
06:51PM 42.1510 -90.4620 272° West 355 409 36,000  Level FlightAware
06:52PM 42.1560 -90.5860 273° West 354 407 36,000  Level FlightAware
06:53PM 42.1600 -90.6880 273° West 353 406 36,000  Level FlightAware
06:53PM 42.1640 -90.7740 274° West 352 405 36,000  Level FlightAware
06:54PM 42.1660 -90.8450 272° West 350 403 36,000  Level FlightAware
06:55PM 42.1700 -90.9510 273° West 349 402 36,000  Level FlightAware
06:55PM 42.1730 -91.0210 273° West 348 400 36,000  Level FlightAware
06:56PM 42.1760 -91.1330 272° West 346 398 36,000  Level FlightAware
06:57PM 42.1790 -91.2290 272° West 345 397 36,000  Level FlightAware
06:58PM 42.1820 -91.3120 273° West 345 397 36,000  Level FlightAware
06:58PM 42.1850 -91.4040 273° West 344 396 36,000  Level FlightAware
06:59PM 42.1880 -91.4880 273° West 344 396 36,000  Level FlightAware
07:00PM 42.1910 -91.5870 272° West 344 396 36,000  Level FlightAware
07:00PM 42.1930 -91.6770 272° West 345 397 36,000  Level FlightAware
07:01PM 42.1960 -91.7550 273° West 345 397 36,000  Level FlightAware
07:02PM 42.1980 -91.8420 272° West 345 397 36,000  Level FlightAware
07:02PM 42.2010 -91.9450 272° West 346 398 36,000  Level FlightAware
07:03PM 42.2030 -92.0410 272° West 346 398 36,000  Level FlightAware
07:04PM 42.2060 -92.1250 273° West 345 397 36,000  Level FlightAware
07:05PM 42.2080 -92.2070 272° West 345 397 36,000  Level FlightAware
07:05PM 42.2100 -92.3080 272° West 345 397 36,000  Level FlightAware
07:06PM 42.2120 -92.3820 272° West 344 396 36,000  Level FlightAware
07:07PM 42.2130 -92.4740 271° West 344 396 36,000  Level FlightAware
07:08PM 42.2160 -92.6210 272° West 343 395 36,000  Level FlightAware
07:09PM 42.2190 -92.7210 272° West 341 392 36,000  Level FlightAware
07:09PM 42.2210 -92.8090 272° West 341 392 36,000  Level FlightAware
07:10PM 42.2220 -92.9030 271° West 341 392 36,000  Level FlightAware
07:11PM 42.2230 -92.9750 271° West 341 392 36,000  Level FlightAware
07:11PM 42.2240 -93.0480 271° West 341 392 36,000  Level FlightAware
07:12PM 42.2270 -93.1660 272° West 341 392 36,000  Level FlightAware
07:13PM 42.2280 -93.2380 271° West 341 392 36,000  Level FlightAware
07:13PM 42.2300 -93.3370 272° West 341 392 36,000  Level FlightAware
07:14PM 42.2310 -93.4340 271° West 342 394 36,000  Level FlightAware
07:15PM 42.2320 -93.5330 271° West 342 394 36,000  Level FlightAware
07:16PM 42.2340 -93.6240 272° West 342 394 36,000  Level FlightAware
07:16PM 42.2350 -93.7360 271° West 341 392 36,000  Level FlightAware
07:17PM 42.2350 -93.8130 270° West 341 392 36,000  Level FlightAware
07:18PM 42.2350 -93.8850 270° West 341 392 36,000  Level FlightAware
07:18PM 42.2350 -93.9580 270° West 341 392 36,000  Level FlightAware
07:19PM 42.2350 -94.0480 270° West 341 392 36,000  Level FlightAware
07:20PM 42.2350 -94.1210 270° West 341 392 36,000  Level FlightAware
07:21PM 42.2350 -94.1930 270° West 341 392 36,000  Level FlightAware
07:21PM 42.2350 -94.2650 270° West 341 392 36,000  Level FlightAware
07:22PM 42.2350 -94.3380 270° West 341 392 36,000  Level FlightAware
07:23PM 42.2350 -94.4290 270° West 341 392 36,000  Level FlightAware
07:23PM 42.2350 -94.5010 270° West 341 392 36,000  Level FlightAware
07:24PM 42.2350 -94.5730 270° West 341 392 36,000  Level FlightAware
07:25PM 42.2350 -94.6460 270° West 341 392 36,000  Level FlightAware
07:25PM 42.2350 -94.7180 270° West 341 392 36,000  Level FlightAware
07:26PM 42.2350 -94.7910 270° West 341 392 36,000  Level FlightAware
07:27PM 42.2422 -95.0961 270° West 338 389 36,000  Level Minneapolis Center
07:28PM 42.2422 -95.2217 270° West 337 388 36,000  Level Minneapolis Center
07:29PM 42.2417 -95.3464 270° West 334 384 36,000  Level Minneapolis Center
07:30PM 42.2414 -95.4728 270° West 337 388 36,000  Level Minneapolis Center
07:31PM 42.2406 -95.5961 270° West 333 383 36,000  Level Minneapolis Center
07:32PM 42.2397 -95.7208 270° West 332 382 36,000  Level Minneapolis Center
07:33PM 42.2392 -95.8689 270° West 330 380 36,000  Level Minneapolis Center
07:34PM 42.2378 -95.9936 269° West 333 383 36,000  Level Minneapolis Center
07:36PM 42.2372 -96.1178 270° West 333 383 36,000  Level Minneapolis Center
07:37PM 42.2361 -96.2431 269° West 334 384 36,000  Level Minneapolis Center
07:38PM 42.2339 -96.3686 269° West 336 387 36,000  Level Minneapolis Center
07:39PM 42.2333 -96.4919 270° West 332 382 36,000  Level Minneapolis Center
07:40PM 42.2311 -96.6158 269° West 333 383 36,000  Level Minneapolis Center
07:41PM 42.2286 -96.7672 269° West 336 387 36,000  Level Minneapolis Center
07:42PM 42.2269 -96.8925 269° West 336 387 36,000  Level Minneapolis Center
07:43PM 42.2247 -97.0175 269° West 336 387 36,000  Level Minneapolis Center
07:44PM 42.2236 -97.1422 269° West 334 384 36,000  Level Minneapolis Center
07:45PM 42.2194 -97.2675 267° West 335 386 36,000  Level Minneapolis Center
07:46PM 42.2169 -97.4156 269° West 333 383 36,000  Level Minneapolis Center
07:47PM 42.2139 -97.5392 268° West 330 380 36,000  Level Minneapolis Center
07:48PM 42.2117 -97.6625 269° West 330 380 36,000  Level Minneapolis Center
07:49PM 42.2075 -97.8100 268° West 330 380 36,000  Level Minneapolis Center
07:50PM 42.2053 -97.9392 269° West 333 383 36,000  Level Minneapolis Center
07:51PM 42.2008 -98.0644 267° West 335 386 36,000  Level Minneapolis Center
07:52PM 42.1972 -98.1906 268° West 337 388 36,000  Level Minneapolis Center
07:53PM 42.1939 -98.3178 268° West 340 391 36,000  Level Minneapolis Center
07:54PM 42.1908 -98.4458 268° West 342 394 36,000  Level Minneapolis Center
07:55PM 42.1864 -98.5706 267° West 336 387 36,000  Level Minneapolis Center
07:56PM 42.1833 -98.6978 268° West 341 392 36,000  Level Minneapolis Center
07:57PM 42.1778 -98.8511 267° West 342 394 36,000  Level Minneapolis Center
07:58PM 42.1728 -98.9786 267° West 343 395 36,000  Level Minneapolis Center
07:59PM 42.1686 -99.1072 268° West 343 395 36,000  Level Minneapolis Center
08:01PM 42.1642 -99.2378 267° West 349 402 36,000  Level Minneapolis Center
08:02PM 42.1581 -99.3967 267° West 355 409 36,000  Level Minneapolis Center
08:02PM 42.1550 -99.4522 266° West 360 414 36,000  Level Denver Center
08:03PM 42.1497 -99.5872 267° West 362 417 36,000  Level Denver Center
08:04PM 42.1433 -99.7403 267° West 363 418 36,000  Level Denver Center
08:05PM 42.1372 -99.8733 267° West 371 427 36,000  Level Denver Center
08:06PM 42.1308 -100.0267 267° West 369 425 36,000  Level Denver Center
08:07PM 42.1258 -100.1589 267° West 371 427 36,000  Level Denver Center
08:08PM 42.1214 -100.2489 266° West 372 428 36,000  Level Minneapolis Center
08:08PM 42.1186 -100.3139 267° West 372 428 36,000  Level Denver Center
08:09PM 42.1133 -100.4472 267° West 373 429 36,000  Level Denver Center
08:10PM 42.1050 -100.6036 266° West 376 433 36,000  Level Denver Center
08:11PM 42.0975 -100.7369 266° West 374 430 36,000  Level Denver Center
08:12PM 42.0894 -100.9150 267° West 373 429 36,000  Level Denver Center
08:14PM 42.0817 -101.0472 266° West 372 428 36,000  Level Denver Center
08:19PM 42.0405 -101.7930 266° West 366 421 36,000  Level FlightAware ADS-B
08:19PM 42.0363 -101.8640 265° West 366 421 36,000  Level FlightAware ADS-B
08:20PM 42.0294 -101.9790 265° West 366 421 36,000  Level FlightAware ADS-B
08:21PM 42.0251 -102.0470 265° West 368 423 36,000  Level FlightAware ADS-B
08:21PM 42.0205 -102.1210 265° West 368 423 36,000  Level FlightAware ADS-B
08:22PM 42.0161 -102.1900 265° West 370 426 36,000  Level FlightAware ADS-B
08:22PM 42.0118 -102.2610 265° West 369 425 36,000  Level FlightAware ADS-B
08:23PM 42.0074 -102.3310 265° West 370 426 36,000  Level FlightAware ADS-B
08:23PM 42.0028 -102.4010 265° West 370 426 36,000  Level FlightAware ADS-B
08:24PM 41.9982 -102.4710 265° West 370 426 36,000  Level FlightAware ADS-B
08:24PM 41.9936 -102.5400 265° West 371 427 36,000  Level FlightAware ADS-B
08:25PM 41.9889 -102.6110 265° West 371 427 36,000  Level FlightAware ADS-B
08:25PM 41.9839 -102.6870 265° West 370 426 36,000  Level FlightAware ADS-B
08:26PM 41.9834 -102.7080 268° West 370 426 36,000  Level FlightAware ADS-B
08:26PM 41.9830 -102.7810 270° West 370 426 36,000  Level FlightAware ADS-B
08:27PM 41.9826 -102.8500 270° West 368 423 36,000  Level FlightAware ADS-B
08:27PM 41.9820 -102.9190 269° West 367 422 36,000  Level FlightAware ADS-B
08:28PM 41.9813 -102.9880 269° West 365 420 36,000  Level FlightAware ADS-B
08:28PM 41.9807 -103.0500 269° West 364 419 36,000  Level FlightAware ADS-B
08:29PM 41.9800 -103.1190 269° West 362 417 36,000  Level FlightAware ADS-B
08:29PM 41.9791 -103.1860 269° West 360 414 36,000  Level FlightAware ADS-B
08:30PM 41.9783 -103.2530 269° West 359 413 36,000  Level FlightAware ADS-B
08:30PM 41.9775 -103.3210 269° West 357 411 36,000  Level FlightAware ADS-B
08:31PM 41.9767 -103.3880 269° West 356 410 36,000  Level FlightAware ADS-B
08:31PM 41.9758 -103.4550 269° West 354 407 36,000  Level FlightAware ADS-B
08:32PM 41.9749 -103.5230 269° West 353 406 36,000  Level FlightAware ADS-B
08:32PM 41.9739 -103.5910 269° West 353 406 36,000  Level FlightAware ADS-B
08:33PM 41.9728 -103.6670 269° West 352 405 36,000  Level FlightAware ADS-B
08:33PM 41.9718 -103.7380 269° West 352 405 36,000  Level FlightAware ADS-B
08:34PM 41.9707 -103.8040 269° West 353 406 36,000  Level FlightAware ADS-B
08:34PM 41.9695 -103.8710 269° West 353 406 36,000  Level FlightAware ADS-B
08:35PM 41.9683 -103.9380 269° West 353 406 36,000  Level FlightAware ADS-B
08:35PM 41.9671 -104.0040 269° West 354 407 36,000  Level FlightAware ADS-B
08:36PM 41.9659 -104.0710 269° West 353 406 36,000  Level FlightAware ADS-B
08:36PM 41.9646 -104.1370 269° West 353 406 36,000  Level FlightAware ADS-B
08:37PM 41.9633 -104.2040 269° West 352 405 36,000  Level FlightAware ADS-B
08:37PM 41.9619 -104.2690 268° West 352 405 36,000  Level FlightAware ADS-B
08:38PM 41.9605 -104.3350 268° West 350 403 36,000  Level FlightAware ADS-B
08:38PM 41.9592 -104.4000 268° West 349 402 36,000  Level FlightAware ADS-B
08:39PM 41.9578 -104.4650 268° West 348 400 36,000  Level FlightAware ADS-B
08:39PM 41.9562 -104.5320 268° West 347 399 36,000  Level FlightAware ADS-B
08:40PM 41.9546 -104.5990 268° West 346 398 36,000  Level FlightAware ADS-B
08:40PM 41.9529 -104.6670 268° West 346 398 36,000  Level FlightAware ADS-B
08:41PM 41.9513 -104.7320 268° West 347 399 36,000  Level FlightAware ADS-B
08:41PM 41.9498 -104.7990 268° West 348 400 36,000  Level FlightAware ADS-B
08:42PM 41.9480 -104.8680 268° West 349 402 36,000  Level FlightAware ADS-B
08:42PM 41.9462 -104.9350 268° West 351 404 36,000  Level FlightAware ADS-B
08:43PM 41.9444 -105.0000 268° West 352 405 36,000  Level FlightAware ADS-B
08:43PM 41.9425 -105.0670 268° West 353 406 36,000  Level FlightAware ADS-B
08:44PM 41.9407 -105.1350 268° West 356 410 36,000  Level FlightAware ADS-B
08:44PM 41.9387 -105.2060 268° West 357 411 36,000  Level FlightAware ADS-B
08:45PM 41.9350 -105.2950 267° West 357 411 36,000  Level FlightAware
08:46PM 41.9330 -105.3980 269° West 359 413 36,000  Level FlightAware
08:47PM 41.9300 -105.5080 268° West 358 412 36,000  Level FlightAware
08:47PM 41.9270 -105.5930 267° West 358 412 36,000  Level FlightAware
08:48PM 41.9240 -105.6950 268° West 358 412 36,000  Level FlightAware
08:49PM 41.9210 -105.7780 267° West 358 412 36,000  Level FlightAware
08:50PM 41.9180 -105.8730 268° West 357 411 36,000  Level FlightAware
08:50PM 41.9140 -105.9740 267° West 357 411 36,000  Level FlightAware
08:51PM 41.9110 -106.0600 267° West 355 409 36,000  Level FlightAware
08:52PM 41.9080 -106.1510 267° West 354 407 36,000  Level FlightAware
08:52PM 41.9040 -106.2470 267° West 352 405 36,000  Level FlightAware
08:53PM 41.9010 -106.3310 267° West 351 404 36,000  Level FlightAware
08:54PM 41.8980 -106.4170 267° West 353 406 36,000  Level FlightAware
08:54PM 41.8930 -106.5210 266° West 359 413 36,000  Level FlightAware
08:55PM 41.8900 -106.6010 267° West 360 414 36,000  Level FlightAware
08:56PM 41.8860 -106.6770 266° West 360 414 36,000  Level FlightAware
08:57PM 41.8800 -106.8290 267° West 365 420 36,000  Level FlightAware
08:57PM 41.8760 -106.9060 266° West 365 420 36,000  Level FlightAware
08:58PM 41.8720 -106.9830 266° West 365 420 36,000  Level FlightAware
08:59PM 41.8680 -107.0600 266° West 365 420 36,000  Level FlightAware
08:59PM 41.8640 -107.1370 266° West 365 420 36,000  Level FlightAware
09:00PM 41.8590 -107.2330 266° West 365 420 36,000  Level FlightAware
09:01PM 41.8550 -107.3100 266° West 365 420 36,000  Level FlightAware
09:02PM 41.8510 -107.3870 266° West 365 420 36,000  Level FlightAware
09:02PM 41.8470 -107.4640 266° West 365 420 36,000  Level FlightAware
09:03PM 41.8420 -107.5600 266° West 365 420 36,000  Level FlightAware
09:04PM 41.8380 -107.6370 266° West 365 420 36,000  Level FlightAware
09:04PM 41.8340 -107.7140 266° West 365 420 36,000  Level FlightAware
09:05PM 41.8300 -107.7900 266° West 365 420 36,000  Level FlightAware
09:06PM 41.8260 -107.8670 266° West 365 420 36,000  Level FlightAware
09:06PM 41.8169 -108.1325 266° West 372 428 36,000  Level Denver Center
09:07PM 41.8142 -108.1986 267° West 371 427 36,000  Level Salt Lake Center
09:08PM 41.8075 -108.3294 266° West 369 425 36,000  Level Salt Lake Center
09:09PM 41.7992 -108.4817 266° West 369 425 36,000  Level Salt Lake Center
09:10PM 41.7900 -108.6114 265° West 368 423 36,000  Level Salt Lake Center
09:11PM 41.7811 -108.7644 266° West 371 427 36,000  Level Salt Lake Center
09:12PM 41.7722 -108.8950 265° West 371 427 36,000  Level Salt Lake Center
09:13PM 41.7644 -109.0253 265° West 370 426 36,000  Level Salt Lake Center
09:14PM 41.7556 -109.1781 266° West 372 428 36,000  Level Salt Lake Center
09:15PM 41.7475 -109.3086 265° West 372 428 36,000  Level Salt Lake Center
09:16PM 41.7369 -109.4639 265° West 376 433 36,000  Level Salt Lake Center
09:17PM 41.7275 -109.5961 265° West 377 434 36,000  Level Salt Lake Center
09:18PM 41.7169 -109.7494 265° West 373 429 36,000  Level Salt Lake Center
09:19PM 41.7083 -109.8814 265° West 374 430 36,000  Level Salt Lake Center
09:20PM 41.6969 -110.0358 264° West 374 430 36,000  Level Salt Lake Center
09:21PM 41.6875 -110.1681 265° West 375 432 36,000  Level Salt Lake Center
09:22PM 41.6786 -110.3008 265° West 375 432 36,000  Level Salt Lake Center
09:28PM 41.6180 -111.0910 265° West 383 441 36,000  Level FlightAware
09:28PM 41.6090 -111.1970 264° West 382 440 36,000  Level FlightAware
09:29PM 41.6020 -111.2890 264° West 382 440 36,000  Level FlightAware
09:30PM 41.5930 -111.3960 264° West 380 437 36,000  Level FlightAware
09:30PM 41.5860 -111.4810 264° West 380 437 36,000  Level FlightAware
09:31PM 41.5770 -111.5810 263° West 380 437 36,000  Level FlightAware
09:32PM 41.5680 -111.6860 263° West 380 437 36,000  Level FlightAware
09:32PM 41.5600 -111.7810 264° West 380 437 36,000  Level FlightAware
09:33PM 41.5510 -111.8870 264° West 379 436 36,000  Level FlightAware
09:34PM 41.5430 -111.9790 263° West 378 435 36,000  Level FlightAware
09:35PM 41.5350 -112.0690 263° West 378 435 36,000  Level FlightAware
09:35PM 41.5250 -112.1760 263° West 382 440 36,000  Level FlightAware
09:36PM 41.5170 -112.2710 264° West 384 442 36,000  Level FlightAware
09:37PM 41.5070 -112.3770 263° West 386 444 36,000  Level FlightAware
09:37PM 41.4980 -112.4710 263° West 386 444 36,000  Level FlightAware
09:38PM 41.4900 -112.5650 264° West 390 449 36,000  Level FlightAware
09:39PM 41.4790 -112.6730 262° West 392 451 36,000  Level FlightAware
09:39PM 41.4700 -112.7680 263° West 391 450 36,000  Level FlightAware
09:40PM 41.4590 -112.8760 262° West 385 443 36,000  Level FlightAware
09:41PM 41.4400 -112.9660 254° West 382 440 36,000  Level FlightAware
09:42PM 41.4210 -113.0570 254° West 381 438 36,000  Level FlightAware
09:42PM 41.4000 -113.1590 255° West 379 436 36,000  Level FlightAware
09:43PM 41.3810 -113.2490 254° West 380 437 36,000  Level FlightAware
09:44PM 41.3600 -113.3510 255° West 386 444 36,000  Level FlightAware
09:44PM 41.3410 -113.4440 255° West 387 445 36,000  Level FlightAware
09:45PM 41.3230 -113.5290 254° West 386 444 36,000  Level FlightAware
09:46PM 41.3000 -113.6360 254° West 386 444 36,000  Level FlightAware
09:46PM 41.2850 -113.7070 254° West 386 444 36,000  Level FlightAware
09:47PM 41.2660 -113.8040 255° West 386 444 36,000  Level FlightAware
09:48PM 41.2420 -113.9070 253° West 387 445 36,000  Level FlightAware
09:49PM 41.2150 -114.0310 254° West 389 448 36,000  Level FlightAware
09:49PM 41.1960 -114.1200 254° West 386 444 36,000  Level FlightAware
09:50PM 41.1730 -114.2230 254° West 384 442 36,000  Level FlightAware
09:51PM 41.1540 -114.3130 254° West 382 440 36,000  Level FlightAware
09:51PM 41.1350 -114.3960 253° West 380 437 36,000  Level FlightAware
09:52PM 41.1160 -114.4860 254° West 380 437 36,000  Level FlightAware
09:53PM 41.0930 -114.5900 254° West 383 441 36,000  Level FlightAware
09:54PM 41.0690 -114.6930 253° West 383 441 36,000  Level FlightAware
09:54PM 41.0490 -114.7860 254° West 384 442 36,000  Level FlightAware
09:55PM 41.0280 -114.8770 253° West 391 450 36,000  Level FlightAware
09:55PM 41.0100 -114.9590 254° West 391 450 36,000  Level FlightAware
09:56PM 40.9850 -115.0680 253° West 391 450 36,000  Level FlightAware
09:57PM 40.9640 -115.1590 253° West 392 451 36,000  Level FlightAware
09:58PM 40.9460 -115.2370 253° West 392 451 36,000  Level FlightAware
09:58PM 40.9280 -115.3150 253° West 392 451 36,000  Level FlightAware
09:59PM 40.9100 -115.3930 253° West 392 451 36,000  Level FlightAware
10:00PM 40.8920 -115.4710 253° West 392 451 36,000  Level FlightAware
10:01PM 40.8700 -115.5690 253° West 392 451 36,000  Level FlightAware
10:01PM 40.8520 -115.6470 253° West 392 451 36,000  Level FlightAware
10:02PM 40.8330 -115.7250 252° West 392 451 36,000  Level FlightAware
10:03PM 40.8150 -115.8030 253° West 392 451 36,000  Level FlightAware
10:03PM 40.7970 -115.8810 253° West 392 451 36,000  Level FlightAware
10:04PM 40.7750 -115.9780 253° West 392 451 36,000  Level FlightAware
10:05PM 40.7570 -116.0560 253° West 392 451 36,000  Level FlightAware
10:05PM 40.7390 -116.1340 253° West 392 451 36,000  Level FlightAware
10:06PM 40.7210 -116.2110 253° West 392 451 36,000  Level FlightAware
10:07PM 40.6478 -116.5114 253° West 387 445 36,000  Level Oakland Center
10:08PM 40.6100 -116.6647 252° West 394 453 36,000  Level Oakland Center
10:09PM 40.5792 -116.7953 253° West 395 455 36,000  Level Oakland Center
10:10PM 40.5408 -116.9483 252° West 400 460 36,000  Level Oakland Center
10:11PM 40.5083 -117.0797 252° West 399 459 36,000  Level Oakland Center
10:12PM 40.4758 -117.2100 252° West 398 458 36,000  Level Oakland Center
10:13PM 40.4364 -117.3661 252° West 402 463 36,000  Level Salt Lake Center
10:14PM 40.3978 -117.5194 252° West 398 458 36,000  Level Salt Lake Center
10:15PM 40.3644 -117.6506 252° West 396 456 36,000  Level Salt Lake Center
10:16PM 40.3256 -117.8014 251° West 392 451 36,000  Level Salt Lake Center
10:17PM 40.2992 -117.9092 252° West 391 450 36,000  Level Oakland Center
10:18PM 40.2656 -118.0406 252° West 395 455 36,000 -360 Level Oakland Center
10:19PM 40.2236 -118.2014 251° West 391 450 35,300 -840 Descending Oakland Center
10:20PM 40.1881 -118.3381 251° West 396 456 34,400 -960 Descending Oakland Center
10:21PM 40.1517 -118.4778 251° West 406 467 33,400 -1,680 Descending Oakland Center
10:22PM 40.1019 -118.6069 243° Southwest 403 464 31,000 -2,760 Descending Oakland Center
10:23PM 40.0167 -118.7125 223° Southwest 421 484 27,800 -2,820 Descending Oakland Center
10:24PM 39.9347 -118.8128 223° Southwest 409 471 25,300 -2,520 Descending Oakland Center
10:25PM 39.8550 -118.9094 223° Southwest 397 457 22,800 -2,460 Descending Oakland Center
10:26PM 39.7783 -119.0025 223° Southwest 383 441 20,400 -2,400 Descending Oakland Center
10:27PM 39.7050 -119.0906 223° Southwest 368 423 18,000 -2,220 Descending Oakland Center
10:28PM 39.6336 -119.1775 223° Southwest 358 412 16,000 -1,200 Descending Oakland Center
10:34PM 39.4210 -119.5820 223° Southwest 268 308 10,800 -1,020 Descending FlightAware
10:34PM 39.4040 -119.6320 246° West 238 274 10,200 -900 Descending FlightAware
10:35PM 39.3970 -119.6580 251° West 229 264 9,800 -1,320 Descending FlightAware
10:35PM 39.3890 -119.6900 252° West 215 247 9,000 -1,620 Descending FlightAware
10:36PM 39.3850 -119.7080 254° West 206 237 8,600 -840 Descending FlightAware
10:36PM 39.3780 -119.7410 255° West 198 228 8,300 -1,380 Descending FlightAware
10:36PM 39.3940 -119.7460 346° North 167 192 7,600 -1,680 Descending FlightAware
10:37PM 39.4190 -119.7640 331° Northwest 140 161 6,900 -1,140 Descending FlightAware
10:38PM 39.4350 -119.7660 354° North 147 169 6,200 -1,020 Descending FlightAware
10:38PM 39.4460 -119.7670 356° North 156 180 5,800 -960 Descending FlightAware